sensor_id;sensor_type;location;lat;lon;timestamp;P1;durP1;ratioP1;P2;durP2;ratioP2
11046;SDS011;5576;50.008;10.596;2023-04-28T00:02:07;5.40;;;3.90;;
11046;SDS011;5576;50.008;10.596;2023-04-28T00:04:33;6.77;;;3.97;;
11046;SDS011;5576;50.008;10.596;2023-04-28T00:06:58;6.07;;;3.65;;
11046;SDS011;5576;50.008;10.596;2023-04-28T00:09:24;5.65;;;3.40;;
11046;SDS011;5576;50.008;10.596;2023-04-28T00:11:50;5.67;;;3.90;;
11046;SDS011;5576;50.008;10.596;2023-04-28T00:14:16;5.25;;;4.00;;
11046;SDS011;5576;50.008;10.596;2023-04-28T00:16:41;5.90;;;4.10;;
11046;SDS011;5576;50.008;10.596;2023-04-28T00:19:07;6.80;;;3.92;;
11046;SDS011;5576;50.008;10.596;2023-04-28T00:21:33;5.80;;;4.00;;
11046;SDS011;5576;50.008;10.596;2023-04-28T00:23:59;7.93;;;4.00;;
11046;SDS011;5576;50.008;10.596;2023-04-28T00:26:24;6.50;;;4.00;;
11046;SDS011;5576;50.008;10.596;2023-04-28T00:28:50;6.05;;;4.03;;
11046;SDS011;5576;50.008;10.596;2023-04-28T00:31:16;5.40;;;3.70;;
11046;SDS011;5576;50.008;10.596;2023-04-28T00:33:42;6.80;;;3.75;;
11046;SDS011;5576;50.008;10.596;2023-04-28T00:36:08;6.68;;;3.35;;
11046;SDS011;5576;50.008;10.596;2023-04-28T00:38:35;7.40;;;3.88;;
11046;SDS011;5576;50.008;10.596;2023-04-28T00:41:01;5.10;;;3.70;;
11046;SDS011;5576;50.008;10.596;2023-04-28T00:43:28;5.70;;;3.67;;
11046;SDS011;5576;50.008;10.596;2023-04-28T00:45:53;7.30;;;3.80;;
11046;SDS011;5576;50.008;10.596;2023-04-28T00:48:20;5.60;;;3.75;;
11046;SDS011;5576;50.008;10.596;2023-04-28T00:50:46;4.60;;;3.40;;
11046;SDS011;5576;50.008;10.596;2023-04-28T00:53:12;5.35;;;3.45;;
11046;SDS011;5576;50.008;10.596;2023-04-28T00:55:38;4.45;;;3.20;;
11046;SDS011;5576;50.008;10.596;2023-04-28T00:58:05;4.85;;;3.13;;
11046;SDS011;5576;50.008;10.596;2023-04-28T01:00:31;5.13;;;3.53;;
11046;SDS011;5576;50.008;10.596;2023-04-28T01:02:58;7.07;;;3.28;;
11046;SDS011;5576;50.008;10.596;2023-04-28T01:05:25;5.38;;;3.60;;
11046;SDS011;5576;50.008;10.596;2023-04-28T01:07:52;7.10;;;3.70;;
11046;SDS011;5576;50.008;10.596;2023-04-28T01:10:18;5.75;;;3.42;;
11046;SDS011;5576;50.008;10.596;2023-04-28T01:12:45;5.87;;;3.40;;
11046;SDS011;5576;50.008;10.596;2023-04-28T01:15:14;4.43;;;3.55;;
11046;SDS011;5576;50.008;10.596;2023-04-28T01:17:42;5.78;;;3.50;;
11046;SDS011;5576;50.008;10.596;2023-04-28T01:20:09;5.43;;;3.70;;
11046;SDS011;5576;50.008;10.596;2023-04-28T01:22:35;5.17;;;3.70;;
11046;SDS011;5576;50.008;10.596;2023-04-28T01:25:01;6.80;;;3.60;;
11046;SDS011;5576;50.008;10.596;2023-04-28T01:27:28;4.00;;;3.30;;
11046;SDS011;5576;50.008;10.596;2023-04-28T01:29:54;4.13;;;3.25;;
11046;SDS011;5576;50.008;10.596;2023-04-28T01:32:22;5.68;;;3.30;;
11046;SDS011;5576;50.008;10.596;2023-04-28T01:34:47;6.47;;;3.42;;
11046;SDS011;5576;50.008;10.596;2023-04-28T01:37:13;6.03;;;3.60;;
11046;SDS011;5576;50.008;10.596;2023-04-28T01:39:39;6.85;;;3.33;;
11046;SDS011;5576;50.008;10.596;2023-04-28T01:42:05;6.13;;;3.50;;
11046;SDS011;5576;50.008;10.596;2023-04-28T01:44:31;5.80;;;3.38;;
11046;SDS011;5576;50.008;10.596;2023-04-28T01:46:57;4.20;;;3.70;;
11046;SDS011;5576;50.008;10.596;2023-04-28T01:49:23;6.03;;;3.90;;
11046;SDS011;5576;50.008;10.596;2023-04-28T01:51:48;5.72;;;3.47;;
11046;SDS011;5576;50.008;10.596;2023-04-28T01:54:14;5.80;;;3.83;;
11046;SDS011;5576;50.008;10.596;2023-04-28T01:56:40;5.68;;;3.55;;
11046;SDS011;5576;50.008;10.596;2023-04-28T01:59:06;4.82;;;3.50;;
11046;SDS011;5576;50.008;10.596;2023-04-28T02:01:32;8.70;;;3.60;;
11046;SDS011;5576;50.008;10.596;2023-04-28T02:03:59;6.40;;;3.40;;
11046;SDS011;5576;50.008;10.596;2023-04-28T02:06:25;4.50;;;3.40;;
11046;SDS011;5576;50.008;10.596;2023-04-28T02:08:52;5.60;;;3.33;;
11046;SDS011;5576;50.008;10.596;2023-04-28T02:11:17;6.25;;;3.53;;
11046;SDS011;5576;50.008;10.596;2023-04-28T02:13:44;4.80;;;3.28;;
11046;SDS011;5576;50.008;10.596;2023-04-28T02:16:10;5.47;;;3.70;;
11046;SDS011;5576;50.008;10.596;2023-04-28T02:18:35;6.67;;;3.60;;
11046;SDS011;5576;50.008;10.596;2023-04-28T02:21:09;4.32;;;3.42;;
11046;SDS011;5576;50.008;10.596;2023-04-28T02:23:36;4.50;;;3.47;;
11046;SDS011;5576;50.008;10.596;2023-04-28T02:26:03;5.70;;;3.80;;
11046;SDS011;5576;50.008;10.596;2023-04-28T02:28:30;6.10;;;3.60;;
11046;SDS011;5576;50.008;10.596;2023-04-28T02:31:11;5.18;;;3.65;;
11046;SDS011;5576;50.008;10.596;2023-04-28T02:33:38;5.25;;;3.33;;
11046;SDS011;5576;50.008;10.596;2023-04-28T02:36:04;5.57;;;3.65;;
11046;SDS011;5576;50.008;10.596;2023-04-28T02:38:33;5.30;;;3.80;;
11046;SDS011;5576;50.008;10.596;2023-04-28T02:40:59;5.00;;;3.92;;
11046;SDS011;5576;50.008;10.596;2023-04-28T02:43:27;5.27;;;3.67;;
11046;SDS011;5576;50.008;10.596;2023-04-28T02:45:53;6.03;;;3.97;;
11046;SDS011;5576;50.008;10.596;2023-04-28T02:48:19;4.90;;;3.80;;
11046;SDS011;5576;50.008;10.596;2023-04-28T02:50:46;5.45;;;3.97;;
11046;SDS011;5576;50.008;10.596;2023-04-28T02:53:11;4.55;;;3.63;;
11046;SDS011;5576;50.008;10.596;2023-04-28T02:55:37;5.63;;;3.70;;
11046;SDS011;5576;50.008;10.596;2023-04-28T02:58:03;7.03;;;3.80;;
11046;SDS011;5576;50.008;10.596;2023-04-28T03:00:29;5.22;;;4.05;;
11046;SDS011;5576;50.008;10.596;2023-04-28T03:02:55;5.70;;;3.80;;
11046;SDS011;5576;50.008;10.596;2023-04-28T03:05:21;6.00;;;4.05;;
11046;SDS011;5576;50.008;10.596;2023-04-28T03:07:47;5.03;;;3.72;;
11046;SDS011;5576;50.008;10.596;2023-04-28T03:10:13;4.53;;;3.83;;
11046;SDS011;5576;50.008;10.596;2023-04-28T03:12:39;7.53;;;4.00;;
11046;SDS011;5576;50.008;10.596;2023-04-28T03:15:05;5.87;;;3.80;;
11046;SDS011;5576;50.008;10.596;2023-04-28T03:17:34;4.90;;;3.97;;
11046;SDS011;5576;50.008;10.596;2023-04-28T03:20:03;4.93;;;3.70;;
11046;SDS011;5576;50.008;10.596;2023-04-28T03:22:29;6.32;;;4.00;;
11046;SDS011;5576;50.008;10.596;2023-04-28T03:24:56;4.95;;;3.78;;
11046;SDS011;5576;50.008;10.596;2023-04-28T03:27:23;6.38;;;4.13;;
11046;SDS011;5576;50.008;10.596;2023-04-28T03:29:50;5.23;;;3.67;;
11046;SDS011;5576;50.008;10.596;2023-04-28T03:32:16;4.60;;;4.13;;
11046;SDS011;5576;50.008;10.596;2023-04-28T03:34:42;6.18;;;4.20;;
11046;SDS011;5576;50.008;10.596;2023-04-28T03:37:08;4.83;;;4.00;;
11046;SDS011;5576;50.008;10.596;2023-04-28T03:39:34;6.75;;;4.10;;
11046;SDS011;5576;50.008;10.596;2023-04-28T03:41:59;5.87;;;4.20;;
11046;SDS011;5576;50.008;10.596;2023-04-28T03:44:45;6.10;;;4.20;;
11046;SDS011;5576;50.008;10.596;2023-04-28T03:47:11;4.90;;;4.20;;
11046;SDS011;5576;50.008;10.596;2023-04-28T03:49:37;5.27;;;4.40;;
11046;SDS011;5576;50.008;10.596;2023-04-28T03:52:03;5.47;;;3.90;;
11046;SDS011;5576;50.008;10.596;2023-04-28T03:54:29;5.03;;;4.18;;
11046;SDS011;5576;50.008;10.596;2023-04-28T03:56:56;5.43;;;4.10;;
11046;SDS011;5576;50.008;10.596;2023-04-28T03:59:22;5.90;;;4.40;;
11046;SDS011;5576;50.008;10.596;2023-04-28T04:01:48;6.15;;;4.30;;
11046;SDS011;5576;50.008;10.596;2023-04-28T04:04:14;6.50;;;4.80;;
11046;SDS011;5576;50.008;10.596;2023-04-28T04:06:40;6.32;;;4.80;;
11046;SDS011;5576;50.008;10.596;2023-04-28T04:09:07;6.07;;;4.78;;
11046;SDS011;5576;50.008;10.596;2023-04-28T04:11:33;6.57;;;5.20;;
11046;SDS011;5576;50.008;10.596;2023-04-28T04:13:59;7.57;;;5.40;;
11046;SDS011;5576;50.008;10.596;2023-04-28T04:16:24;6.68;;;5.63;;
11046;SDS011;5576;50.008;10.596;2023-04-28T04:18:53;8.43;;;7.00;;
11046;SDS011;5576;50.008;10.596;2023-04-28T04:21:22;7.57;;;6.78;;
11046;SDS011;5576;50.008;10.596;2023-04-28T04:23:49;8.35;;;6.30;;
11046;SDS011;5576;50.008;10.596;2023-04-28T04:26:15;7.68;;;6.28;;
11046;SDS011;5576;50.008;10.596;2023-04-28T04:28:41;7.67;;;6.00;;
11046;SDS011;5576;50.008;10.596;2023-04-28T04:31:08;7.40;;;5.60;;
11046;SDS011;5576;50.008;10.596;2023-04-28T04:33:34;6.97;;;5.15;;
11046;SDS011;5576;50.008;10.596;2023-04-28T04:36:03;7.15;;;5.22;;
11046;SDS011;5576;50.008;10.596;2023-04-28T04:38:29;7.03;;;5.53;;
11046;SDS011;5576;50.008;10.596;2023-04-28T04:40:57;6.25;;;5.20;;
11046;SDS011;5576;50.008;10.596;2023-04-28T04:43:23;6.60;;;5.50;;
11046;SDS011;5576;50.008;10.596;2023-04-28T04:45:49;5.70;;;5.10;;
11046;SDS011;5576;50.008;10.596;2023-04-28T04:48:16;7.07;;;5.15;;
11046;SDS011;5576;50.008;10.596;2023-04-28T04:50:42;7.25;;;5.35;;
11046;SDS011;5576;50.008;10.596;2023-04-28T04:53:08;5.65;;;4.95;;
11046;SDS011;5576;50.008;10.596;2023-04-28T04:55:34;5.60;;;5.00;;
11046;SDS011;5576;50.008;10.596;2023-04-28T04:58:01;7.75;;;5.00;;
11046;SDS011;5576;50.008;10.596;2023-04-28T05:00:28;7.50;;;5.45;;
11046;SDS011;5576;50.008;10.596;2023-04-28T05:02:54;6.85;;;5.13;;
11046;SDS011;5576;50.008;10.596;2023-04-28T05:05:20;7.53;;;5.13;;
11046;SDS011;5576;50.008;10.596;2023-04-28T05:07:53;6.55;;;5.22;;
11046;SDS011;5576;50.008;10.596;2023-04-28T05:10:20;6.38;;;5.15;;
11046;SDS011;5576;50.008;10.596;2023-04-28T05:12:46;6.63;;;5.60;;
11046;SDS011;5576;50.008;10.596;2023-04-28T05:15:12;8.90;;;5.90;;
11046;SDS011;5576;50.008;10.596;2023-04-28T05:17:45;5.65;;;4.88;;
11046;SDS011;5576;50.008;10.596;2023-04-28T05:20:11;6.22;;;5.35;;
11046;SDS011;5576;50.008;10.596;2023-04-28T05:22:37;7.68;;;5.20;;
11046;SDS011;5576;50.008;10.596;2023-04-28T05:25:03;6.30;;;5.37;;
11046;SDS011;5576;50.008;10.596;2023-04-28T05:27:29;6.63;;;5.40;;
11046;SDS011;5576;50.008;10.596;2023-04-28T05:29:55;6.20;;;5.45;;
11046;SDS011;5576;50.008;10.596;2023-04-28T05:32:21;6.75;;;4.88;;
11046;SDS011;5576;50.008;10.596;2023-04-28T05:34:46;6.93;;;5.33;;
11046;SDS011;5576;50.008;10.596;2023-04-28T05:37:12;5.82;;;5.22;;
11046;SDS011;5576;50.008;10.596;2023-04-28T05:39:41;6.45;;;4.88;;
11046;SDS011;5576;50.008;10.596;2023-04-28T05:42:06;7.03;;;5.40;;
11046;SDS011;5576;50.008;10.596;2023-04-28T05:44:33;5.85;;;5.25;;
11046;SDS011;5576;50.008;10.596;2023-04-28T05:46:59;7.90;;;5.20;;
11046;SDS011;5576;50.008;10.596;2023-04-28T05:49:26;5.25;;;4.72;;
11046;SDS011;5576;50.008;10.596;2023-04-28T05:51:51;6.93;;;4.97;;
11046;SDS011;5576;50.008;10.596;2023-04-28T05:54:17;6.77;;;5.37;;
11046;SDS011;5576;50.008;10.596;2023-04-28T05:56:47;6.78;;;5.15;;
11046;SDS011;5576;50.008;10.596;2023-04-28T05:59:13;6.30;;;5.30;;
11046;SDS011;5576;50.008;10.596;2023-04-28T06:01:40;6.15;;;5.10;;
11046;SDS011;5576;50.008;10.596;2023-04-28T06:04:05;6.38;;;5.43;;
11046;SDS011;5576;50.008;10.596;2023-04-28T06:06:31;7.30;;;5.27;;
11046;SDS011;5576;50.008;10.596;2023-04-28T06:08:58;6.90;;;5.30;;
11046;SDS011;5576;50.008;10.596;2023-04-28T06:11:24;6.20;;;5.60;;
11046;SDS011;5576;50.008;10.596;2023-04-28T06:13:51;6.97;;;5.77;;
11046;SDS011;5576;50.008;10.596;2023-04-28T06:16:17;6.67;;;5.33;;
11046;SDS011;5576;50.008;10.596;2023-04-28T06:18:43;6.80;;;5.55;;
11046;SDS011;5576;50.008;10.596;2023-04-28T06:21:09;6.72;;;6.03;;
11046;SDS011;5576;50.008;10.596;2023-04-28T06:23:34;8.70;;;7.90;;
11046;SDS011;5576;50.008;10.596;2023-04-28T06:26:01;7.78;;;6.80;;
11046;SDS011;5576;50.008;10.596;2023-04-28T06:28:28;6.97;;;5.78;;
11046;SDS011;5576;50.008;10.596;2023-04-28T06:30:53;9.43;;;7.13;;
11046;SDS011;5576;50.008;10.596;2023-04-28T06:33:19;7.03;;;6.33;;
11046;SDS011;5576;50.008;10.596;2023-04-28T06:35:46;9.02;;;6.57;;
11046;SDS011;5576;50.008;10.596;2023-04-28T06:38:13;8.35;;;6.80;;
11046;SDS011;5576;50.008;10.596;2023-04-28T06:40:39;9.20;;;6.65;;
11046;SDS011;5576;50.008;10.596;2023-04-28T06:43:05;8.13;;;6.30;;
11046;SDS011;5576;50.008;10.596;2023-04-28T06:45:51;7.25;;;6.30;;
11046;SDS011;5576;50.008;10.596;2023-04-28T06:48:17;7.40;;;6.20;;
11046;SDS011;5576;50.008;10.596;2023-04-28T06:50:43;7.07;;;5.97;;
11046;SDS011;5576;50.008;10.596;2023-04-28T06:53:09;7.72;;;6.18;;
11046;SDS011;5576;50.008;10.596;2023-04-28T06:55:35;8.03;;;6.77;;
11046;SDS011;5576;50.008;10.596;2023-04-28T06:58:01;9.52;;;6.45;;
11046;SDS011;5576;50.008;10.596;2023-04-28T07:00:27;7.63;;;5.90;;
11046;SDS011;5576;50.008;10.596;2023-04-28T07:02:53;8.57;;;6.50;;
11046;SDS011;5576;50.008;10.596;2023-04-28T07:05:18;7.90;;;7.07;;
11046;SDS011;5576;50.008;10.596;2023-04-28T07:07:44;10.50;;;8.10;;
11046;SDS011;5576;50.008;10.596;2023-04-28T07:10:10;8.80;;;7.45;;
11046;SDS011;5576;50.008;10.596;2023-04-28T07:12:37;7.70;;;6.43;;
11046;SDS011;5576;50.008;10.596;2023-04-28T07:15:03;8.90;;;6.80;;
11046;SDS011;5576;50.008;10.596;2023-04-28T07:17:29;7.22;;;6.30;;
11046;SDS011;5576;50.008;10.596;2023-04-28T07:19:54;8.63;;;6.50;;
11046;SDS011;5576;50.008;10.596;2023-04-28T07:22:20;6.83;;;6.13;;
11046;SDS011;5576;50.008;10.596;2023-04-28T07:24:46;8.55;;;6.60;;
11046;SDS011;5576;50.008;10.596;2023-04-28T07:27:12;7.53;;;6.67;;
11046;SDS011;5576;50.008;10.596;2023-04-28T07:29:37;7.18;;;6.15;;
11046;SDS011;5576;50.008;10.596;2023-04-28T07:32:03;7.35;;;6.65;;
11046;SDS011;5576;50.008;10.596;2023-04-28T07:34:32;9.52;;;6.68;;
11046;SDS011;5576;50.008;10.596;2023-04-28T07:36:58;6.80;;;6.18;;
11046;SDS011;5576;50.008;10.596;2023-04-28T07:39:24;7.20;;;6.32;;
11046;SDS011;5576;50.008;10.596;2023-04-28T07:41:50;7.60;;;6.80;;
11046;SDS011;5576;50.008;10.596;2023-04-28T07:44:16;7.18;;;6.45;;
11046;SDS011;5576;50.008;10.596;2023-04-28T07:46:42;7.90;;;6.90;;
11046;SDS011;5576;50.008;10.596;2023-04-28T07:49:07;9.77;;;7.10;;
11046;SDS011;5576;50.008;10.596;2023-04-28T07:51:33;7.80;;;6.82;;
11046;SDS011;5576;50.008;10.596;2023-04-28T07:53:59;8.15;;;7.32;;
11046;SDS011;5576;50.008;10.596;2023-04-28T07:56:25;8.37;;;6.50;;
11046;SDS011;5576;50.008;10.596;2023-04-28T07:58:51;9.25;;;7.20;;
11046;SDS011;5576;50.008;10.596;2023-04-28T08:01:17;9.75;;;7.70;;
11046;SDS011;5576;50.008;10.596;2023-04-28T08:03:43;8.50;;;7.57;;
11046;SDS011;5576;50.008;10.596;2023-04-28T08:06:09;8.70;;;7.80;;
11046;SDS011;5576;50.008;10.596;2023-04-28T08:08:34;9.13;;;8.18;;
11046;SDS011;5576;50.008;10.596;2023-04-28T08:11:00;9.30;;;7.57;;
11046;SDS011;5576;50.008;10.596;2023-04-28T08:13:26;8.70;;;7.70;;
11046;SDS011;5576;50.008;10.596;2023-04-28T08:15:53;9.48;;;7.88;;
11046;SDS011;5576;50.008;10.596;2023-04-28T08:18:20;10.40;;;9.40;;
11046;SDS011;5576;50.008;10.596;2023-04-28T08:20:46;8.70;;;7.68;;
11046;SDS011;5576;50.008;10.596;2023-04-28T08:23:12;9.02;;;7.70;;
11046;SDS011;5576;50.008;10.596;2023-04-28T08:25:38;8.63;;;7.80;;
11046;SDS011;5576;50.008;10.596;2023-04-28T08:28:04;8.60;;;7.70;;
11046;SDS011;5576;50.008;10.596;2023-04-28T08:30:30;8.80;;;8.00;;
11046;SDS011;5576;50.008;10.596;2023-04-28T08:32:56;8.98;;;7.60;;
11046;SDS011;5576;50.008;10.596;2023-04-28T08:35:22;9.30;;;8.07;;
11046;SDS011;5576;50.008;10.596;2023-04-28T08:37:47;9.37;;;8.43;;
11046;SDS011;5576;50.008;10.596;2023-04-28T08:40:14;9.93;;;8.20;;
11046;SDS011;5576;50.008;10.596;2023-04-28T08:42:39;8.48;;;7.68;;
11046;SDS011;5576;50.008;10.596;2023-04-28T08:45:06;8.90;;;8.00;;
11046;SDS011;5576;50.008;10.596;2023-04-28T08:47:37;8.93;;;8.10;;
11046;SDS011;5576;50.008;10.596;2023-04-28T08:50:05;9.20;;;8.20;;
11046;SDS011;5576;50.008;10.596;2023-04-28T08:52:32;9.38;;;8.48;;
11046;SDS011;5576;50.008;10.596;2023-04-28T08:54:59;10.65;;;8.68;;
11046;SDS011;5576;50.008;10.596;2023-04-28T08:57:30;9.43;;;8.52;;
11046;SDS011;5576;50.008;10.596;2023-04-28T09:00:02;9.40;;;8.50;;
11046;SDS011;5576;50.008;10.596;2023-04-28T09:02:28;9.98;;;8.95;;
11046;SDS011;5576;50.008;10.596;2023-04-28T09:04:54;10.00;;;9.00;;
11046;SDS011;5576;50.008;10.596;2023-04-28T09:07:20;9.83;;;8.63;;
11046;SDS011;5576;50.008;10.596;2023-04-28T09:09:46;10.20;;;9.10;;
11046;SDS011;5576;50.008;10.596;2023-04-28T09:12:12;10.57;;;9.15;;
11046;SDS011;5576;50.008;10.596;2023-04-28T09:14:38;10.60;;;9.60;;
11046;SDS011;5576;50.008;10.596;2023-04-28T09:17:11;12.27;;;9.27;;
11046;SDS011;5576;50.008;10.596;2023-04-28T09:19:38;10.70;;;9.53;;
11046;SDS011;5576;50.008;10.596;2023-04-28T09:22:07;43.50;;;35.42;;
11046;SDS011;5576;50.008;10.596;2023-04-28T09:24:33;14.75;;;13.30;;
11046;SDS011;5576;50.008;10.596;2023-04-28T09:27:02;13.47;;;12.17;;
11046;SDS011;5576;50.008;10.596;2023-04-28T09:29:29;11.73;;;10.23;;
11046;SDS011;5576;50.008;10.596;2023-04-28T09:32:11;11.07;;;9.90;;
11046;SDS011;5576;50.008;10.596;2023-04-28T09:34:41;12.52;;;11.32;;
11046;SDS011;5576;50.008;10.596;2023-04-28T09:37:17;11.35;;;10.23;;
11046;SDS011;5576;50.008;10.596;2023-04-28T09:39:45;12.27;;;10.35;;
11046;SDS011;5576;50.008;10.596;2023-04-28T09:42:29;11.27;;;10.25;;
11046;SDS011;5576;50.008;10.596;2023-04-28T09:44:57;10.98;;;9.93;;
11046;SDS011;5576;50.008;10.596;2023-04-28T09:47:23;10.83;;;9.73;;
11046;SDS011;5576;50.008;10.596;2023-04-28T09:49:57;11.77;;;10.00;;
11046;SDS011;5576;50.008;10.596;2023-04-28T09:52:24;10.50;;;9.50;;
11046;SDS011;5576;50.008;10.596;2023-04-28T09:54:51;10.80;;;9.55;;
11046;SDS011;5576;50.008;10.596;2023-04-28T09:57:18;10.73;;;9.73;;
11046;SDS011;5576;50.008;10.596;2023-04-28T09:59:48;10.93;;;9.82;;
11046;SDS011;5576;50.008;10.596;2023-04-28T10:02:15;11.45;;;10.35;;
11046;SDS011;5576;50.008;10.596;2023-04-28T10:04:44;12.35;;;10.90;;
11046;SDS011;5576;50.008;10.596;2023-04-28T10:07:11;11.48;;;10.38;;
11046;SDS011;5576;50.008;10.596;2023-04-28T10:09:39;11.18;;;10.07;;
11046;SDS011;5576;50.008;10.596;2023-04-28T10:12:09;10.40;;;9.38;;
11046;SDS011;5576;50.008;10.596;2023-04-28T10:14:36;10.73;;;9.63;;
11046;SDS011;5576;50.008;10.596;2023-04-28T10:17:02;11.20;;;10.10;;
11046;SDS011;5576;50.008;10.596;2023-04-28T10:19:29;11.17;;;10.07;;
11046;SDS011;5576;50.008;10.596;2023-04-28T10:22:12;11.60;;;10.10;;
11046;SDS011;5576;50.008;10.596;2023-04-28T10:24:52;14.97;;;13.57;;
11046;SDS011;5576;50.008;10.596;2023-04-28T10:27:46;13.55;;;12.15;;
11046;SDS011;5576;50.008;10.596;2023-04-28T10:30:13;12.57;;;11.38;;
11046;SDS011;5576;50.008;10.596;2023-04-28T10:32:41;12.27;;;10.98;;
11046;SDS011;5576;50.008;10.596;2023-04-28T10:40:44;14.98;;;11.30;;
11046;SDS011;5576;50.008;10.596;2023-04-28T10:43:12;12.17;;;10.77;;
11046;SDS011;5576;50.008;10.596;2023-04-28T10:58:49;11.80;;;10.60;;
11046;SDS011;5576;50.008;10.596;2023-04-28T11:03:48;11.80;;;10.60;;
11046;SDS011;5576;50.008;10.596;2023-04-28T11:08:54;11.23;;;10.13;;
11046;SDS011;5576;50.008;10.596;2023-04-28T11:11:25;11.27;;;10.18;;
11046;SDS011;5576;50.008;10.596;2023-04-28T11:13:52;11.30;;;10.20;;
11046;SDS011;5576;50.008;10.596;2023-04-28T11:16:20;11.27;;;10.17;;
11046;SDS011;5576;50.008;10.596;2023-04-28T11:21:24;11.50;;;10.25;;
11046;SDS011;5576;50.008;10.596;2023-04-28T11:23:52;13.50;;;12.10;;
11046;SDS011;5576;50.008;10.596;2023-04-28T11:26:18;15.95;;;14.25;;
11046;SDS011;5576;50.008;10.596;2023-04-28T11:28:46;14.73;;;12.23;;
11046;SDS011;5576;50.008;10.596;2023-04-28T11:31:14;13.10;;;11.75;;
11046;SDS011;5576;50.008;10.596;2023-04-28T11:33:44;13.07;;;11.77;;
11046;SDS011;5576;50.008;10.596;2023-04-28T11:36:21;12.27;;;11.07;;
11046;SDS011;5576;50.008;10.596;2023-04-28T11:38:47;12.30;;;11.05;;
11046;SDS011;5576;50.008;10.596;2023-04-28T11:41:13;12.70;;;11.40;;
11046;SDS011;5576;50.008;10.596;2023-04-28T11:43:39;12.30;;;11.20;;
11046;SDS011;5576;50.008;10.596;2023-04-28T11:46:06;12.50;;;11.30;;
11046;SDS011;5576;50.008;10.596;2023-04-28T11:48:32;12.90;;;11.65;;
11046;SDS011;5576;50.008;10.596;2023-04-28T11:50:57;12.90;;;11.70;;
11046;SDS011;5576;50.008;10.596;2023-04-28T11:53:41;13.10;;;11.90;;
11046;SDS011;5576;50.008;10.596;2023-04-28T11:56:08;13.05;;;11.85;;
11046;SDS011;5576;50.008;10.596;2023-04-28T11:58:34;13.52;;;12.23;;
11046;SDS011;5576;50.008;10.596;2023-04-28T12:01:08;13.77;;;12.25;;
11046;SDS011;5576;50.008;10.596;2023-04-28T12:03:43;12.55;;;11.45;;
11046;SDS011;5576;50.008;10.596;2023-04-28T12:06:10;11.80;;;10.70;;
11046;SDS011;5576;50.008;10.596;2023-04-28T12:08:36;11.88;;;10.73;;
11046;SDS011;5576;50.008;10.596;2023-04-28T12:11:09;11.70;;;10.60;;
11046;SDS011;5576;50.008;10.596;2023-04-28T12:13:37;12.32;;;11.23;;
11046;SDS011;5576;50.008;10.596;2023-04-28T12:16:04;11.90;;;10.80;;
11046;SDS011;5576;50.008;10.596;2023-04-28T12:18:34;10.65;;;9.75;;
11046;SDS011;5576;50.008;10.596;2023-04-28T12:21:01;11.38;;;10.38;;
11046;SDS011;5576;50.008;10.596;2023-04-28T12:23:29;11.77;;;10.73;;
11046;SDS011;5576;50.008;10.596;2023-04-28T12:25:56;10.45;;;9.45;;
11046;SDS011;5576;50.008;10.596;2023-04-28T12:28:22;10.57;;;9.60;;
11046;SDS011;5576;50.008;10.596;2023-04-28T12:30:49;10.43;;;9.43;;
11046;SDS011;5576;50.008;10.596;2023-04-28T12:33:30;10.48;;;9.48;;
11046;SDS011;5576;50.008;10.596;2023-04-28T12:35:58;10.35;;;9.20;;
11046;SDS011;5576;50.008;10.596;2023-04-28T12:38:24;10.80;;;9.70;;
11046;SDS011;5576;50.008;10.596;2023-04-28T12:40:50;9.73;;;8.93;;
11046;SDS011;5576;50.008;10.596;2023-04-28T12:43:16;9.68;;;8.77;;
11046;SDS011;5576;50.008;10.596;2023-04-28T12:45:43;9.27;;;8.37;;
11046;SDS011;5576;50.008;10.596;2023-04-28T12:48:08;9.98;;;8.98;;
11046;SDS011;5576;50.008;10.596;2023-04-28T12:50:35;11.25;;;9.95;;
11046;SDS011;5576;50.008;10.596;2023-04-28T12:53:00;11.00;;;9.90;;
11046;SDS011;5576;50.008;10.596;2023-04-28T12:55:26;9.80;;;8.90;;
11046;SDS011;5576;50.008;10.596;2023-04-28T12:57:53;10.02;;;9.02;;
11046;SDS011;5576;50.008;10.596;2023-04-28T13:00:19;10.57;;;9.57;;
11046;SDS011;5576;50.008;10.596;2023-04-28T13:02:47;10.45;;;9.43;;
11046;SDS011;5576;50.008;10.596;2023-04-28T13:05:13;11.60;;;9.57;;
11046;SDS011;5576;50.008;10.596;2023-04-28T13:07:39;10.65;;;9.55;;
11046;SDS011;5576;50.008;10.596;2023-04-28T13:10:05;10.98;;;9.73;;
11046;SDS011;5576;50.008;10.596;2023-04-28T13:12:32;11.00;;;10.00;;
11046;SDS011;5576;50.008;10.596;2023-04-28T13:15:01;11.48;;;10.25;;
11046;SDS011;5576;50.008;10.596;2023-04-28T13:17:28;10.00;;;8.95;;
11046;SDS011;5576;50.008;10.596;2023-04-28T13:19:54;10.73;;;9.65;;
11046;SDS011;5576;50.008;10.596;2023-04-28T13:22:20;9.63;;;8.40;;
11046;SDS011;5576;50.008;10.596;2023-04-28T13:24:46;8.35;;;7.65;;
11046;SDS011;5576;50.008;10.596;2023-04-28T13:27:12;8.63;;;7.82;;
11046;SDS011;5576;50.008;10.596;2023-04-28T13:29:38;8.95;;;8.25;;
11046;SDS011;5576;50.008;10.596;2023-04-28T13:32:04;9.20;;;8.33;;
11046;SDS011;5576;50.008;10.596;2023-04-28T13:34:30;8.60;;;7.80;;
11046;SDS011;5576;50.008;10.596;2023-04-28T13:36:56;9.30;;;8.40;;
11046;SDS011;5576;50.008;10.596;2023-04-28T13:39:22;8.50;;;7.70;;
11046;SDS011;5576;50.008;10.596;2023-04-28T13:41:47;9.98;;;8.60;;
11046;SDS011;5576;50.008;10.596;2023-04-28T13:44:14;9.03;;;8.20;;
11046;SDS011;5576;50.008;10.596;2023-04-28T13:46:40;9.80;;;8.88;;
11046;SDS011;5576;50.008;10.596;2023-04-28T13:49:06;8.83;;;7.90;;
11046;SDS011;5576;50.008;10.596;2023-04-28T13:51:33;7.72;;;7.03;;
11046;SDS011;5576;50.008;10.596;2023-04-28T13:53:59;8.10;;;7.40;;
11046;SDS011;5576;50.008;10.596;2023-04-28T13:56:29;7.63;;;6.93;;
11046;SDS011;5576;50.008;10.596;2023-04-28T13:58:56;8.77;;;7.97;;
11046;SDS011;5576;50.008;10.596;2023-04-28T14:01:22;19.35;;;9.68;;
11046;SDS011;5576;50.008;10.596;2023-04-28T14:03:49;8.73;;;7.45;;
11046;SDS011;5576;50.008;10.596;2023-04-28T14:06:15;9.48;;;8.00;;
11046;SDS011;5576;50.008;10.596;2023-04-28T14:08:41;8.50;;;7.70;;
11046;SDS011;5576;50.008;10.596;2023-04-28T14:11:06;9.18;;;8.27;;
11046;SDS011;5576;50.008;10.596;2023-04-28T14:13:33;9.50;;;7.30;;
11046;SDS011;5576;50.008;10.596;2023-04-28T14:15:59;9.82;;;8.40;;
11046;SDS011;5576;50.008;10.596;2023-04-28T14:18:26;10.70;;;8.48;;
11046;SDS011;5576;50.008;10.596;2023-04-28T14:20:52;7.93;;;7.13;;
11046;SDS011;5576;50.008;10.596;2023-04-28T14:23:18;8.55;;;7.68;;
11046;SDS011;5576;50.008;10.596;2023-04-28T14:25:44;8.48;;;7.60;;
11046;SDS011;5576;50.008;10.596;2023-04-28T14:28:10;8.70;;;7.90;;
11046;SDS011;5576;50.008;10.596;2023-04-28T14:30:36;8.60;;;7.80;;
11046;SDS011;5576;50.008;10.596;2023-04-28T14:33:02;9.82;;;8.93;;
11046;SDS011;5576;50.008;10.596;2023-04-28T14:35:28;9.00;;;8.10;;
11046;SDS011;5576;50.008;10.596;2023-04-28T14:37:56;6.70;;;6.10;;
11046;SDS011;5576;50.008;10.596;2023-04-28T14:40:22;7.82;;;7.13;;
11046;SDS011;5576;50.008;10.596;2023-04-28T14:42:48;8.43;;;7.63;;
11046;SDS011;5576;50.008;10.596;2023-04-28T14:45:14;8.47;;;7.67;;
11046;SDS011;5576;50.008;10.596;2023-04-28T14:47:39;9.00;;;8.10;;
11046;SDS011;5576;50.008;10.596;2023-04-28T14:50:06;7.40;;;6.75;;
11046;SDS011;5576;50.008;10.596;2023-04-28T14:52:32;7.53;;;6.90;;
11046;SDS011;5576;50.008;10.596;2023-04-28T14:54:58;8.90;;;8.10;;
11046;SDS011;5576;50.008;10.596;2023-04-28T14:57:25;8.95;;;8.13;;
11046;SDS011;5576;50.008;10.596;2023-04-28T14:59:52;9.43;;;8.40;;
11046;SDS011;5576;50.008;10.596;2023-04-28T15:02:19;10.60;;;9.27;;
11046;SDS011;5576;50.008;10.596;2023-04-28T15:04:46;9.20;;;8.30;;
11046;SDS011;5576;50.008;10.596;2023-04-28T15:07:12;9.68;;;8.70;;
11046;SDS011;5576;50.008;10.596;2023-04-28T15:09:39;10.70;;;9.57;;